KNEW/NEW METAR and TAF weather

Enter ICAO airport designator
Station Type Date Time Source
KNEW METAR 2021/09/16 20:53 UTC NOAA

KNEW 162053Z 17012KT 10SM OVC100 31/24 A2982 RMK AO2 SLP090 T03060239 56009


Station Type Date Time Source
KNEW Decoded METAR 2021/09/16 20:53 UTC NOAA

NEW ORLEANS LAKEFRONT AIRPORT , LA, United States (KNEW) 30-03N 90-02W 3M
Sep 16, 2021 - 04:53 PM EDT / 2021.09.16 2053 UTC
Wind: from the S (170 degrees) at 14 MPH (12 KT):0
Visibility: 10 mile(s):0
Sky conditions: overcast
Temperature: 87.1 F (30.6 C)
Heat index: 96.4 F (35.8 C):1
Dew Point: 75.0 F (23.9 C)
Relative Humidity: 67%
Pressure (altimeter): 29.82 in. Hg (1009 hPa)
Pressure tendency: 0.03 inches (0.9 hPa) lower than three hours ago
ob: KNEW 162053Z 17012KT 10SM OVC100 31/24 A2982 RMK AO2 SLP090 T03060239 56009
cycle: 21

Station Type Date Time Source
KNEW TAF 2021/09/16 18:48 UTC NOAA

TAF KNEW 161747Z 1618/1718 18009G18KT P6SM VCSH SCT020 BKN070
FM170100 17008KT P6SM VCSH BKN025
FM170700 16007KT P6SM SCT015
FM171100 19007KT P6SM BKN020
FM171500 19013KT P6SM OVC025
TEMPO 1715/1718 -TSRA BKN025CB

Example: see airport list